createdAt,value
2018-09-15T00:00:12.860Z,61.44
2018-09-15T00:00:44.454Z,61.28
2018-09-15T00:01:16.049Z,60.65
2018-09-15T00:01:47.640Z,60.66
2018-09-15T00:02:19.245Z,61.14
2018-09-15T00:02:50.832Z,60.86
2018-09-15T00:03:22.435Z,61.24
2018-09-15T00:03:54.053Z,61.40
2018-09-15T00:04:25.661Z,61.37
2018-09-15T00:04:57.241Z,61.48
2018-09-15T00:05:28.862Z,61.59
2018-09-15T00:06:00.460Z,61.31
2018-09-15T00:06:32.062Z,61.37
2018-09-15T00:07:03.671Z,61.35
2018-09-15T00:07:35.336Z,61.39
2018-09-15T00:08:06.942Z,61.33
2018-09-15T00:08:38.546Z,61.38
2018-09-15T00:09:10.193Z,61.39
2018-09-15T00:09:41.819Z,61.31
2018-09-15T00:10:13.445Z,61.46
2018-09-15T00:10:45.065Z,61.68
2018-09-15T00:11:16.688Z,61.80
2018-09-15T00:11:48.316Z,61.87
2018-09-15T00:12:19.931Z,61.85
2018-09-15T00:12:51.539Z,61.88
2018-09-15T00:13:23.165Z,62.00
2018-09-15T00:13:54.812Z,61.97
2018-09-15T00:14:26.423Z,61.92
2018-09-15T00:14:58.065Z,61.82
2018-09-15T00:15:29.679Z,61.95
2018-09-15T00:16:01.301Z,61.96
2018-09-15T00:16:32.913Z,61.86
2018-09-15T00:17:04.531Z,61.93
2018-09-15T00:17:36.153Z,62.12
2018-09-15T00:18:07.767Z,61.81
2018-09-15T00:18:39.388Z,61.82
2018-09-15T00:19:11.040Z,61.80
2018-09-15T00:19:42.661Z,61.75
2018-09-15T00:20:14.285Z,61.81
2018-09-15T00:20:45.908Z,61.79
2018-09-15T00:21:17.533Z,61.88
2018-09-15T00:21:49.158Z,61.79
2018-09-15T00:22:20.771Z,61.89
2018-09-15T00:22:52.407Z,61.70
2018-09-15T00:23:24.049Z,61.84
2018-09-15T00:23:55.697Z,61.83
2018-09-15T00:24:27.321Z,61.68
2018-09-15T00:24:58.945Z,61.72
2018-09-15T00:25:30.913Z,61.47
2018-09-15T00:26:02.551Z,61.63
2018-09-15T00:26:34.173Z,61.93
2018-09-15T00:27:05.802Z,61.96
2018-09-15T00:27:37.424Z,62.08
2018-09-15T00:28:09.039Z,62.09
2018-09-15T00:28:40.651Z,62.09
2018-09-15T00:29:12.301Z,62.11
2018-09-15T00:29:43.925Z,62.10
2018-09-15T00:30:15.548Z,62.14
2018-09-15T00:30:47.176Z,62.28
2018-09-15T00:31:18.787Z,62.11
2018-09-15T00:31:50.395Z,62.29
2018-09-15T00:32:22.017Z,62.42
2018-09-15T00:32:53.631Z,62.45
2018-09-15T00:33:25.253Z,62.30
2018-09-15T00:33:56.900Z,62.38
2018-09-15T00:34:28.543Z,62.24
2018-09-15T00:35:00.169Z,62.34
2018-09-15T00:35:31.794Z,62.30
2018-09-15T00:36:03.417Z,62.09
2018-09-15T00:36:35.041Z,61.96
2018-09-15T00:37:06.665Z,62.13
2018-09-15T00:37:38.275Z,62.15
2018-09-15T00:38:09.891Z,61.98
2018-09-15T00:38:41.517Z,61.98
2018-09-15T00:39:13.169Z,61.96
2018-09-15T00:39:44.783Z,61.97
2018-09-15T00:40:16.411Z,61.96
2018-09-15T00:40:48.037Z,61.90
2018-09-15T00:41:19.661Z,62.01
2018-09-15T00:41:51.359Z,61.94
2018-09-15T00:42:22.932Z,61.85
2018-09-15T00:42:54.548Z,61.99
2018-09-15T00:43:26.168Z,61.92
2018-09-15T00:43:57.790Z,61.92
2018-09-15T00:44:29.433Z,62.06
2018-09-15T00:45:01.028Z,61.94
2018-09-15T00:45:32.634Z,61.86
2018-09-15T00:46:04.227Z,62.00
2018-09-15T00:46:35.834Z,61.81
2018-09-15T00:47:07.442Z,61.89
2018-09-15T00:47:39.045Z,61.90
2018-09-15T00:48:10.632Z,61.70
2018-09-15T00:48:42.220Z,62.12
2018-09-15T00:49:13.997Z,62.28
2018-09-15T00:49:45.691Z,61.88
2018-09-15T00:50:17.271Z,61.90
2018-09-15T00:50:48.877Z,61.90
2018-09-15T00:51:20.481Z,61.68
2018-09-15T00:51:52.081Z,61.91
2018-09-15T00:52:23.658Z,61.66
2018-09-15T00:52:55.244Z,61.60
2018-09-15T00:53:26.836Z,61.82
2018-09-15T00:53:58.438Z,62.00
2018-09-15T00:54:30.109Z,61.86
2018-09-15T00:55:01.702Z,61.75
2018-09-15T00:55:33.420Z,61.70
2018-09-15T00:56:05.027Z,61.71
2018-09-15T00:56:36.638Z,61.64
2018-09-15T00:57:08.232Z,61.69
2018-09-15T00:57:39.820Z,61.77
2018-09-15T00:58:11.407Z,62.04
2018-09-15T00:58:43.010Z,61.85
2018-09-15T00:59:14.609Z,61.82
2018-09-15T00:59:46.237Z,61.54
2018-09-15T01:00:17.823Z,61.75
2018-09-15T01:00:49.425Z,61.51
2018-09-15T01:01:21.017Z,61.53
2018-09-15T01:01:52.612Z,61.46
2018-09-15T01:02:24.244Z,61.42
2018-09-15T01:02:55.835Z,61.41
2018-09-15T01:03:27.420Z,61.36
2018-09-15T01:03:59.021Z,61.43
2018-09-15T01:04:30.774Z,61.44
2018-09-15T01:05:02.366Z,61.49
2018-09-15T01:05:33.960Z,61.46
2018-09-15T01:06:05.569Z,61.07
2018-09-15T01:06:37.175Z,61.38
2018-09-15T01:07:08.770Z,61.46
2018-09-15T01:07:40.359Z,61.30
2018-09-15T01:08:11.952Z,61.45
2018-09-15T01:08:43.540Z,61.40
2018-09-15T01:09:15.128Z,61.52
2018-09-15T01:09:46.906Z,61.49
2018-09-15T01:10:18.500Z,61.58
2018-09-15T01:10:50.088Z,61.68
2018-09-15T01:11:21.680Z,61.43
2018-09-15T01:11:53.286Z,61.53
2018-09-15T01:12:24.877Z,61.64
2018-09-15T01:12:56.470Z,61.62
2018-09-15T01:13:28.074Z,61.58
2018-09-15T01:13:59.677Z,61.57
2018-09-15T01:14:31.345Z,61.64
2018-09-15T01:15:02.965Z,61.75
2018-09-15T01:15:34.560Z,61.54
2018-09-15T01:16:06.162Z,61.47
2018-09-15T01:16:37.742Z,61.37
2018-09-15T01:17:09.332Z,61.39
2018-09-15T01:17:40.933Z,61.41
2018-09-15T01:18:12.538Z,61.51
2018-09-15T01:18:44.145Z,61.40
2018-09-15T01:19:15.735Z,61.31
2018-09-15T01:19:47.342Z,61.23
2018-09-15T01:20:18.932Z,61.20
2018-09-15T01:20:50.538Z,61.44
2018-09-15T01:21:22.140Z,61.38
2018-09-15T01:21:53.753Z,61.22
2018-09-15T01:22:25.341Z,61.33
2018-09-15T01:22:56.949Z,61.35
2018-09-15T01:23:28.544Z,61.39
2018-09-15T01:24:00.140Z,61.46
2018-09-15T01:24:31.742Z,61.32
2018-09-15T01:25:03.365Z,61.33
2018-09-15T01:25:35.197Z,61.34
2018-09-15T01:26:06.810Z,61.37
2018-09-15T01:26:38.425Z,61.25
2018-09-15T01:27:10.024Z,61.24
2018-09-15T01:27:41.630Z,61.30
2018-09-15T01:28:13.210Z,61.30
2018-09-15T01:28:44.799Z,61.18
2018-09-15T01:29:16.391Z,61.31
2018-09-15T01:29:47.988Z,61.44
2018-09-15T01:30:19.594Z,61.48
2018-09-15T01:30:51.324Z,61.54
2018-09-15T01:31:22.925Z,61.71
2018-09-15T01:31:54.516Z,61.66
2018-09-15T01:32:26.124Z,61.55
2018-09-15T01:32:57.726Z,61.55
2018-09-15T01:33:29.315Z,61.62
2018-09-15T01:34:00.919Z,61.72
2018-09-15T01:34:32.507Z,61.70
2018-09-15T01:35:04.100Z,61.70
2018-09-15T01:35:35.688Z,61.91
2018-09-15T01:36:07.616Z,61.86
2018-09-15T01:36:39.448Z,61.89
2018-09-15T01:37:11.036Z,61.89
2018-09-15T01:37:42.618Z,62.00
2018-09-15T01:38:14.208Z,62.00
2018-09-15T01:38:45.798Z,61.89
2018-09-15T01:39:17.387Z,61.70
2018-09-15T01:39:48.980Z,61.48
2018-09-15T01:40:20.567Z,61.24
2018-09-15T01:40:52.185Z,61.76
2018-09-15T01:41:23.800Z,62.08
2018-09-15T01:41:55.398Z,61.74
2018-09-15T01:42:27.003Z,61.82
2018-09-15T01:42:58.602Z,62.06
2018-09-15T01:43:30.214Z,61.92
2018-09-15T01:44:01.822Z,61.87
2018-09-15T01:44:33.413Z,61.97
2018-09-15T01:45:05.031Z,61.77
2018-09-15T01:45:36.633Z,61.76
2018-09-15T01:46:08.242Z,61.67
2018-09-15T01:46:39.828Z,61.71
2018-09-15T01:47:11.428Z,61.71
2018-09-15T01:47:43.031Z,61.64
2018-09-15T01:48:14.619Z,61.80
2018-09-15T01:48:46.218Z,61.53
2018-09-15T01:49:17.793Z,61.69
2018-09-15T01:49:49.393Z,61.63
2018-09-15T01:50:20.993Z,61.72
2018-09-15T01:50:52.599Z,61.72
2018-09-15T01:51:24.220Z,61.63
2018-09-15T01:51:55.822Z,61.60
2018-09-15T01:52:27.425Z,61.62
2018-09-15T01:52:59.018Z,61.75
2018-09-15T01:53:30.607Z,61.53
2018-09-15T01:54:02.210Z,61.71
2018-09-15T01:54:33.818Z,61.55
2018-09-15T01:55:05.457Z,61.67
2018-09-15T01:55:37.055Z,61.70
2018-09-15T01:56:08.693Z,61.68
2018-09-15T01:56:40.288Z,61.66
2018-09-15T01:57:11.876Z,61.59
2018-09-15T01:57:43.484Z,61.38
2018-09-15T01:58:15.094Z,61.57
2018-09-15T01:58:46.688Z,61.54
2018-09-15T01:59:18.279Z,61.75
2018-09-15T01:59:49.871Z,61.98
2018-09-15T02:00:21.464Z,61.72
2018-09-15T02:00:53.042Z,61.75
2018-09-15T02:01:24.656Z,61.59
2018-09-15T02:01:56.258Z,61.97
2018-09-15T02:02:27.852Z,61.74
2018-09-15T02:02:59.453Z,61.65
2018-09-15T02:03:31.058Z,61.60
2018-09-15T02:04:02.642Z,61.83
2018-09-15T02:04:34.236Z,61.60
2018-09-15T02:05:05.839Z,61.70
2018-09-15T02:05:37.442Z,61.82
2018-09-15T02:06:09.045Z,61.99
2018-09-15T02:06:40.678Z,61.66
2018-09-15T02:07:12.272Z,61.89
2018-09-15T02:07:43.874Z,61.69
2018-09-15T02:08:15.512Z,61.72
2018-09-15T02:08:47.096Z,61.58
2018-09-15T02:09:18.697Z,61.35
2018-09-15T02:09:50.284Z,61.40
2018-09-15T02:10:21.871Z,61.73
2018-09-15T02:10:53.488Z,61.52
2018-09-15T02:11:25.099Z,61.37
2018-09-15T02:11:56.687Z,61.40
2018-09-15T02:12:28.275Z,61.54
2018-09-15T02:12:59.867Z,61.53
2018-09-15T02:13:31.460Z,61.52
2018-09-15T02:14:03.066Z,61.39
2018-09-15T02:14:34.665Z,61.49
2018-09-15T02:15:06.260Z,61.54
2018-09-15T02:15:37.852Z,61.86
2018-09-15T02:16:09.461Z,61.77
2018-09-15T02:16:41.079Z,61.35
2018-09-15T02:17:12.669Z,61.27
2018-09-15T02:17:44.270Z,61.35
2018-09-15T02:18:16.010Z,61.43
2018-09-15T02:18:47.618Z,61.33
2018-09-15T02:19:19.218Z,61.40
2018-09-15T02:19:50.822Z,61.56
2018-09-15T02:20:22.412Z,61.39
2018-09-15T02:20:54.000Z,61.39
2018-09-15T02:21:25.597Z,61.47
2018-09-15T02:21:57.334Z,61.38
2018-09-15T02:22:28.949Z,61.73
2018-09-15T02:23:00.608Z,61.40
2018-09-15T02:23:32.245Z,61.71
2018-09-15T02:24:03.841Z,61.76
2018-09-15T02:24:35.431Z,61.67
2018-09-15T02:25:07.020Z,61.78
2018-09-15T02:25:38.622Z,61.78
2018-09-15T02:26:10.212Z,62.01
2018-09-15T02:26:41.813Z,61.87
2018-09-15T02:27:13.628Z,61.89
2018-09-15T02:27:45.278Z,62.03
2018-09-15T02:28:16.938Z,61.97
2018-09-15T02:28:48.529Z,62.12
2018-09-15T02:29:20.107Z,62.34
2018-09-15T02:29:51.703Z,62.53
2018-09-15T02:30:23.325Z,62.26
2018-09-15T02:30:54.903Z,62.32
2018-09-15T02:31:26.491Z,62.38
2018-09-15T02:31:58.077Z,62.18
2018-09-15T02:32:29.692Z,62.22
2018-09-15T02:33:01.475Z,62.30
2018-09-15T02:33:33.069Z,62.30
2018-09-15T02:34:04.698Z,62.21
2018-09-15T02:34:36.288Z,62.27
2018-09-15T02:35:07.881Z,62.21
2018-09-15T02:35:39.502Z,62.21
2018-09-15T02:36:11.114Z,62.17
2018-09-15T02:36:42.722Z,62.33
2018-09-15T02:37:14.316Z,62.26
2018-09-15T02:37:45.924Z,62.19
2018-09-15T02:38:17.691Z,62.26
2018-09-15T02:38:49.297Z,62.15
2018-09-15T02:39:20.901Z,62.18
2018-09-15T02:39:52.478Z,62.29
2018-09-15T02:40:24.069Z,62.36
2018-09-15T02:40:55.674Z,62.05
2018-09-15T02:41:27.264Z,62.13
2018-09-15T02:41:58.870Z,62.20
2018-09-15T02:42:30.464Z,61.99
2018-09-15T02:43:02.061Z,62.05
2018-09-15T02:43:33.678Z,61.97
2018-09-15T02:44:05.258Z,61.97
2018-09-15T02:44:36.851Z,61.88
2018-09-15T02:45:08.457Z,62.05
2018-09-15T02:45:40.050Z,62.08
2018-09-15T02:46:11.636Z,62.11
2018-09-15T02:46:43.216Z,61.97
2018-09-15T02:47:14.809Z,61.98
2018-09-15T02:47:46.405Z,61.97
2018-09-15T02:48:18.018Z,61.93
2018-09-15T02:48:49.650Z,61.80
2018-09-15T02:49:21.243Z,62.06
2018-09-15T02:49:52.831Z,61.92
2018-09-15T02:50:24.434Z,61.95
2018-09-15T02:50:56.024Z,61.90
2018-09-15T02:51:27.612Z,61.77
2018-09-15T02:51:59.215Z,61.78
2018-09-15T02:52:30.803Z,61.77
2018-09-15T02:53:02.412Z,61.78
2018-09-15T02:53:34.018Z,61.77
2018-09-15T02:54:05.774Z,61.76
2018-09-15T02:54:37.395Z,61.74
2018-09-15T02:55:09.010Z,61.85
2018-09-15T02:55:40.614Z,61.68
2018-09-15T02:56:12.204Z,61.61
2018-09-15T02:56:43.797Z,61.62
2018-09-15T02:57:15.413Z,61.58
2018-09-15T02:57:47.003Z,61.64
2018-09-15T02:58:18.589Z,61.49
2018-09-15T02:58:50.174Z,61.54
2018-09-15T02:59:21.770Z,61.54
2018-09-15T02:59:53.368Z,61.53
2018-09-15T03:00:24.959Z,61.49
2018-09-15T03:00:56.544Z,61.39
2018-09-15T03:01:28.161Z,61.44
2018-09-15T03:01:59.766Z,61.46
2018-09-15T03:02:31.370Z,61.51
2018-09-15T03:03:02.960Z,61.36
2018-09-15T03:03:34.547Z,61.47
2018-09-15T03:04:06.155Z,61.42
2018-09-15T03:04:37.770Z,61.47
2018-09-15T03:05:09.374Z,61.32
2018-09-15T03:05:40.964Z,61.37
2018-09-15T03:06:12.581Z,61.58
2018-09-15T03:06:44.179Z,61.38
2018-09-15T03:07:15.782Z,61.42
2018-09-15T03:07:47.377Z,61.37
2018-09-15T03:08:18.958Z,61.46
2018-09-15T03:08:50.559Z,61.43
2018-09-15T03:09:22.176Z,61.39
2018-09-15T03:09:53.764Z,61.42
2018-09-15T03:10:25.356Z,61.37
2018-09-15T03:10:57.016Z,61.38
2018-09-15T03:11:28.563Z,61.45
2018-09-15T03:12:00.166Z,61.49
2018-09-15T03:12:31.769Z,61.48
2018-09-15T03:13:03.375Z,61.49
2018-09-15T03:13:34.983Z,61.54
2018-09-15T03:14:06.580Z,61.45
2018-09-15T03:14:38.196Z,61.36
2018-09-15T03:15:09.785Z,61.51
2018-09-15T03:15:41.388Z,61.53
2018-09-15T03:16:12.974Z,61.44
2018-09-15T03:16:44.577Z,61.51
2018-09-15T03:17:16.154Z,61.44
2018-09-15T03:17:47.757Z,61.40
2018-09-15T03:18:19.360Z,61.47
2018-09-15T03:18:50.947Z,61.57
2018-09-15T03:19:22.558Z,61.39
2018-09-15T03:19:54.166Z,61.39
2018-09-15T03:20:25.770Z,61.46
2018-09-15T03:20:57.354Z,61.52
2018-09-15T03:21:29.033Z,61.47
2018-09-15T03:22:00.613Z,61.50
2018-09-15T03:22:32.217Z,61.38
2018-09-15T03:23:03.824Z,61.45
2018-09-15T03:23:35.412Z,61.25
2018-09-15T03:24:07.000Z,61.78
2018-09-15T03:24:38.627Z,61.56
2018-09-15T03:25:10.206Z,61.61
2018-09-15T03:25:41.796Z,61.73
2018-09-15T03:26:13.399Z,61.39
2018-09-15T03:26:45.003Z,61.27
2018-09-15T03:27:16.596Z,61.22
2018-09-15T03:27:48.180Z,61.23
2018-09-15T03:28:19.782Z,61.43
2018-09-15T03:28:51.372Z,61.21
2018-09-15T03:29:22.968Z,61.22
2018-09-15T03:29:54.598Z,61.33
2018-09-15T03:30:26.193Z,61.18
2018-09-15T03:30:57.781Z,61.35
2018-09-15T03:31:29.368Z,61.35
2018-09-15T03:32:00.970Z,61.34
2018-09-15T03:32:32.560Z,61.45
2018-09-15T03:33:04.166Z,61.28
2018-09-15T03:33:35.771Z,61.46
2018-09-15T03:34:07.364Z,61.24
2018-09-15T03:34:38.987Z,61.20
2018-09-15T03:35:10.575Z,61.10
2018-09-15T03:35:42.160Z,61.26
2018-09-15T03:36:13.764Z,61.39
2018-09-15T03:36:45.359Z,61.43
2018-09-15T03:37:16.964Z,61.28
2018-09-15T03:37:48.567Z,61.25
2018-09-15T03:38:20.154Z,61.21
2018-09-15T03:38:51.741Z,61.28
2018-09-15T03:39:23.327Z,61.54
2018-09-15T03:39:54.944Z,61.43
2018-09-15T03:40:26.529Z,61.51
2018-09-15T03:40:58.125Z,61.80
2018-09-15T03:41:29.739Z,61.56
2018-09-15T03:42:01.379Z,61.73
2018-09-15T03:42:32.965Z,61.87
2018-09-15T03:43:04.555Z,62.16
2018-09-15T03:43:36.144Z,61.88
2018-09-15T03:44:07.754Z,62.17
2018-09-15T03:44:39.399Z,61.94
2018-09-15T03:45:10.988Z,62.06
2018-09-15T03:45:42.595Z,62.23
2018-09-15T03:46:14.198Z,62.19
2018-09-15T03:46:45.792Z,62.24
2018-09-15T03:47:17.380Z,62.43
2018-09-15T03:47:48.989Z,62.19
2018-09-15T03:48:20.884Z,62.89
2018-09-15T03:48:52.477Z,62.63
2018-09-15T03:49:24.089Z,62.35
2018-09-15T03:49:55.713Z,62.34
2018-09-15T03:50:27.300Z,62.29
2018-09-15T03:50:58.902Z,62.65
2018-09-15T03:51:30.506Z,62.70
2018-09-15T03:52:02.103Z,62.59
2018-09-15T03:52:33.711Z,62.69
2018-09-15T03:53:05.299Z,62.69
2018-09-15T03:53:36.888Z,62.72
2018-09-15T03:54:08.497Z,62.49
2018-09-15T03:54:40.590Z,62.36
2018-09-15T03:55:12.202Z,62.56
2018-09-15T03:55:43.799Z,62.65
2018-09-15T03:56:15.500Z,62.58
2018-09-15T03:56:47.105Z,62.74
2018-09-15T03:57:18.696Z,62.90
2018-09-15T03:57:50.305Z,62.94
2018-09-15T03:58:21.900Z,62.94
2018-09-15T03:58:53.482Z,62.54
2018-09-15T03:59:25.071Z,62.68
2018-09-15T03:59:56.767Z,62.71
2018-09-15T04:00:28.323Z,62.70
2018-09-15T04:00:59.924Z,62.60
2018-09-15T04:01:31.502Z,62.50
2018-09-15T04:02:03.096Z,62.91
2018-09-15T04:02:34.684Z,62.95
2018-09-15T04:03:06.274Z,62.83
2018-09-15T04:03:37.860Z,63.20
2018-09-15T04:04:09.466Z,62.71
2018-09-15T04:04:41.078Z,62.93
2018-09-15T04:05:12.714Z,63.22
2018-09-15T04:05:44.318Z,62.97
2018-09-15T04:06:15.912Z,63.11
2018-09-15T04:06:47.501Z,63.07
2018-09-15T04:07:19.089Z,63.00
2018-09-15T04:07:50.693Z,63.11
2018-09-15T04:08:22.279Z,63.12
2018-09-15T04:08:53.872Z,63.20
2018-09-15T04:09:25.462Z,63.08
2018-09-15T04:09:57.094Z,62.96
2018-09-15T04:10:28.674Z,63.13
2018-09-15T04:11:00.303Z,63.38
2018-09-15T04:11:31.889Z,63.09
2018-09-15T04:12:03.494Z,63.06
2018-09-15T04:12:35.078Z,63.36
2018-09-15T04:13:06.668Z,63.02
2018-09-15T04:13:38.256Z,62.91
2018-09-15T04:14:09.848Z,63.14
2018-09-15T04:14:41.443Z,63.04
2018-09-15T04:15:13.064Z,62.92
2018-09-15T04:15:44.655Z,62.96
2018-09-15T04:16:16.257Z,63.08
2018-09-15T04:16:47.866Z,63.27
2018-09-15T04:17:19.469Z,63.34
2018-09-15T04:17:51.060Z,62.99
2018-09-15T04:18:22.656Z,63.06
2018-09-15T04:18:54.252Z,63.30
2018-09-15T04:19:25.847Z,63.03
2018-09-15T04:19:57.568Z,63.06
2018-09-15T04:20:29.170Z,63.29
2018-09-15T04:21:00.760Z,63.05
2018-09-15T04:21:32.366Z,63.08
2018-09-15T04:22:03.981Z,63.10
2018-09-15T04:22:35.572Z,63.10
2018-09-15T04:23:07.160Z,63.27
2018-09-15T04:23:38.762Z,63.00
2018-09-15T04:24:10.360Z,63.13
2018-09-15T04:24:41.966Z,63.27
2018-09-15T04:25:13.575Z,63.34
2018-09-15T04:25:45.178Z,63.22
2018-09-15T04:26:16.768Z,63.24
2018-09-15T04:26:48.374Z,63.34
2018-09-15T04:27:19.968Z,63.22
2018-09-15T04:27:51.556Z,63.18
2018-09-15T04:28:23.170Z,63.29
2018-09-15T04:28:54.764Z,63.18
2018-09-15T04:29:26.365Z,63.18
2018-09-15T04:29:57.976Z,63.20
2018-09-15T04:30:29.609Z,63.28
2018-09-15T04:31:01.220Z,63.42
2018-09-15T04:31:32.829Z,63.22
2018-09-15T04:32:04.420Z,63.38
2018-09-15T04:32:36.009Z,63.69
2018-09-15T04:33:07.598Z,63.40
2018-09-15T04:33:39.205Z,63.84
2018-09-15T04:34:10.796Z,63.73
2018-09-15T04:34:42.384Z,63.98
2018-09-15T04:35:14.005Z,63.91
2018-09-15T04:35:45.605Z,63.82
2018-09-15T04:36:17.182Z,63.87
2018-09-15T04:36:48.786Z,63.99
2018-09-15T04:37:20.385Z,63.88
2018-09-15T04:37:51.979Z,63.98
2018-09-15T04:38:23.569Z,64.01
2018-09-15T04:38:55.257Z,64.12
2018-09-15T04:39:26.845Z,64.02
2018-09-15T04:39:58.461Z,64.37
2018-09-15T04:40:30.254Z,63.97
2018-09-15T04:41:01.853Z,64.03
2018-09-15T04:41:33.479Z,63.99
2018-09-15T04:42:05.090Z,63.96
2018-09-15T04:42:36.682Z,63.94
2018-09-15T04:43:08.289Z,64.22
2018-09-15T04:43:39.876Z,64.02
2018-09-15T04:44:11.464Z,64.00
2018-09-15T04:44:43.056Z,64.00
2018-09-15T04:45:14.639Z,63.88
2018-09-15T04:45:46.261Z,63.74
2018-09-15T04:46:17.865Z,63.59
2018-09-15T04:46:49.463Z,63.87
2018-09-15T04:47:21.067Z,63.67
2018-09-15T04:47:52.665Z,63.94
2018-09-15T04:48:24.259Z,63.84
2018-09-15T04:48:55.842Z,63.55
2018-09-15T04:49:27.438Z,63.50
2018-09-15T04:49:59.023Z,63.57
2018-09-15T04:50:30.624Z,63.29
2018-09-15T04:51:02.370Z,63.35
2018-09-15T04:51:33.964Z,63.16
2018-09-15T04:52:05.556Z,63.56
2018-09-15T04:52:37.196Z,63.56
2018-09-15T04:53:08.778Z,63.25
2018-09-15T04:53:40.372Z,63.33
2018-09-15T04:54:11.960Z,63.18
2018-09-15T04:54:43.567Z,63.19
2018-09-15T04:55:15.170Z,63.17
2018-09-15T04:55:46.784Z,63.01
2018-09-15T04:56:18.559Z,63.00
2018-09-15T04:56:50.149Z,63.01
2018-09-15T04:57:21.736Z,63.06
2018-09-15T04:57:53.333Z,62.99
2018-09-15T04:58:24.930Z,62.97
2018-09-15T04:58:56.547Z,62.96
2018-09-15T04:59:28.146Z,62.94
2018-09-15T04:59:59.754Z,63.00
2018-09-15T05:00:31.365Z,63.08
2018-09-15T05:01:02.988Z,62.91
2018-09-15T05:01:34.618Z,62.80
2018-09-15T05:02:06.221Z,62.87
2018-09-15T05:02:37.812Z,62.83
2018-09-15T05:03:09.410Z,62.69
2018-09-15T05:03:41.000Z,63.02
2018-09-15T05:04:12.599Z,63.10
2018-09-15T05:04:44.188Z,62.86
2018-09-15T05:05:15.777Z,62.90
2018-09-15T05:05:47.373Z,62.89
2018-09-15T05:06:18.962Z,62.74
2018-09-15T05:06:50.574Z,62.91
2018-09-15T05:07:22.164Z,62.73
2018-09-15T05:07:53.757Z,62.81
2018-09-15T05:08:25.349Z,63.00
2018-09-15T05:08:56.935Z,62.94
2018-09-15T05:09:28.514Z,62.95
2018-09-15T05:10:00.104Z,63.16
2018-09-15T05:10:31.706Z,63.11
2018-09-15T05:11:03.283Z,63.05
2018-09-15T05:11:35.060Z,62.97
2018-09-15T05:12:06.662Z,63.20
2018-09-15T05:12:38.324Z,63.04
2018-09-15T05:13:09.894Z,63.17
2018-09-15T05:13:41.501Z,63.04
2018-09-15T05:14:13.113Z,63.04
2018-09-15T05:14:44.706Z,62.99
2018-09-15T05:15:16.310Z,62.72
2018-09-15T05:15:47.922Z,62.78
2018-09-15T05:16:19.521Z,63.04
2018-09-15T05:16:51.264Z,63.05
2018-09-15T05:17:22.846Z,63.23
2018-09-15T05:17:54.439Z,63.05
2018-09-15T05:18:26.028Z,62.85
2018-09-15T05:18:57.611Z,63.15
2018-09-15T05:19:29.200Z,62.78
2018-09-15T05:20:00.792Z,62.88
2018-09-15T05:20:32.394Z,62.74
2018-09-15T05:21:03.988Z,62.69
2018-09-15T05:21:35.576Z,62.66
2018-09-15T05:22:07.192Z,62.65
2018-09-15T05:22:38.774Z,62.75
2018-09-15T05:23:10.368Z,62.67
2018-09-15T05:23:41.960Z,62.88
2018-09-15T05:24:13.544Z,62.57
2018-09-15T05:24:45.148Z,62.75
2018-09-15T05:25:16.762Z,62.49
2018-09-15T05:25:48.338Z,62.54
2018-09-15T05:26:19.938Z,62.50
2018-09-15T05:26:51.532Z,62.52
2018-09-15T05:27:23.148Z,62.56
2018-09-15T05:27:54.738Z,62.60
2018-09-15T05:28:26.323Z,62.45
2018-09-15T05:28:57.912Z,62.52
2018-09-15T05:29:29.502Z,62.55
2018-09-15T05:30:01.105Z,62.40
2018-09-15T05:30:32.714Z,62.40
2018-09-15T05:31:04.305Z,62.40
2018-09-15T05:31:35.966Z,62.51
2018-09-15T05:32:07.516Z,62.37
2018-09-15T05:32:39.276Z,62.46
2018-09-15T05:33:10.864Z,62.34
2018-09-15T05:33:42.452Z,62.41
2018-09-15T05:34:14.040Z,62.29
2018-09-15T05:34:45.632Z,62.50
2018-09-15T05:35:17.220Z,62.50
2018-09-15T05:35:48.807Z,62.54
2018-09-15T05:36:20.392Z,62.61
2018-09-15T05:36:51.994Z,62.79
2018-09-15T05:37:23.574Z,62.93
2018-09-15T05:37:55.188Z,62.97
2018-09-15T05:38:26.775Z,62.86
2018-09-15T05:38:58.364Z,62.74
2018-09-15T05:39:29.954Z,62.89
2018-09-15T05:40:01.654Z,62.89
2018-09-15T05:40:33.176Z,62.97
2018-09-15T05:41:04.768Z,63.33
2018-09-15T05:41:36.374Z,63.26
2018-09-15T05:42:07.978Z,63.62
2018-09-15T05:42:39.567Z,63.29
2018-09-15T05:43:11.165Z,63.80
2018-09-15T05:43:42.760Z,63.59
2018-09-15T05:44:14.348Z,63.75
2018-09-15T05:44:45.936Z,63.46
2018-09-15T05:45:17.510Z,63.46
2018-09-15T05:45:49.100Z,63.34
2018-09-15T05:46:20.706Z,63.58
2018-09-15T05:46:52.310Z,63.39
2018-09-15T05:47:23.915Z,63.45
2018-09-15T05:47:55.498Z,63.58
2018-09-15T05:48:27.107Z,63.79
2018-09-15T05:48:58.709Z,63.59
2018-09-15T05:49:30.314Z,63.64
2018-09-15T05:50:01.916Z,63.66
2018-09-15T05:50:33.508Z,63.77
2018-09-15T05:51:05.111Z,63.72
2018-09-15T05:51:36.721Z,63.70
2018-09-15T05:52:08.298Z,63.61
2018-09-15T05:52:39.913Z,63.63
2018-09-15T05:53:11.492Z,63.74
2018-09-15T05:53:43.080Z,63.50
2018-09-15T05:54:14.687Z,63.47
2018-09-15T05:54:46.281Z,63.50
2018-09-15T05:55:17.894Z,63.50
2018-09-15T05:55:49.492Z,63.56
2018-09-15T05:56:21.094Z,63.74
2018-09-15T05:56:52.688Z,63.57
2018-09-15T05:57:24.279Z,63.76
2018-09-15T05:57:55.886Z,63.72
2018-09-15T05:58:27.482Z,64.06
2018-09-15T05:58:59.090Z,63.55
2018-09-15T05:59:30.694Z,63.98
2018-09-15T06:00:02.292Z,64.21
2018-09-15T06:00:33.928Z,64.33
2018-09-15T06:01:05.521Z,64.58
2018-09-15T06:01:37.154Z,64.81
2018-09-15T06:02:08.732Z,64.20
2018-09-15T06:02:40.454Z,64.34
2018-09-15T06:03:12.048Z,64.55
2018-09-15T06:03:43.650Z,64.14
2018-09-15T06:04:15.242Z,64.08
2018-09-15T06:04:46.850Z,64.32
2018-09-15T06:05:18.436Z,64.02
2018-09-15T06:05:50.018Z,64.27
2018-09-15T06:06:21.614Z,64.07
2018-09-15T06:06:53.285Z,64.14
2018-09-15T06:07:24.813Z,64.03
2018-09-15T06:07:56.427Z,64.43
2018-09-15T06:08:28.014Z,64.32
2018-09-15T06:08:59.618Z,64.13
2018-09-15T06:09:31.226Z,64.12
2018-09-15T06:10:02.831Z,63.99
2018-09-15T06:10:34.439Z,64.44
2018-09-15T06:11:06.032Z,63.91
2018-09-15T06:11:37.624Z,64.05
2018-09-15T06:12:09.220Z,64.00
2018-09-15T06:12:40.822Z,64.46
2018-09-15T06:13:12.447Z,64.19
2018-09-15T06:13:44.056Z,64.41
2018-09-15T06:14:15.646Z,64.15
2018-09-15T06:14:47.240Z,64.23
2018-09-15T06:15:18.842Z,64.09
2018-09-15T06:15:50.432Z,64.01
2018-09-15T06:16:22.039Z,64.29
2018-09-15T06:16:53.640Z,64.27
2018-09-15T06:17:25.214Z,64.19
2018-09-15T06:17:56.919Z,64.87
2018-09-15T06:18:28.512Z,64.67
2018-09-15T06:19:00.091Z,64.14
2018-09-15T06:19:31.680Z,64.36
2018-09-15T06:20:03.284Z,64.49
2018-09-15T06:20:34.866Z,64.21
2018-09-15T06:21:06.461Z,64.27
2018-09-15T06:21:38.042Z,64.26
2018-09-15T06:22:09.622Z,64.15
2018-09-15T06:22:41.208Z,64.22
2018-09-15T06:23:12.831Z,64.12
2018-09-15T06:23:44.438Z,64.12
2018-09-15T06:24:16.097Z,63.86
2018-09-15T06:24:47.679Z,63.73
2018-09-15T06:25:19.256Z,63.83
2018-09-15T06:25:50.851Z,64.20
2018-09-15T06:26:27.374Z,64.15
2018-09-15T06:26:59.201Z,64.03
2018-09-15T06:27:30.793Z,64.01
2018-09-15T06:28:02.440Z,64.07
2018-09-15T06:28:34.063Z,64.11
2018-09-15T06:29:05.669Z,63.95
2018-09-15T06:29:37.278Z,63.79
2018-09-15T06:30:08.872Z,63.82
2018-09-15T06:30:40.479Z,63.88
2018-09-15T06:31:12.081Z,63.96
2018-09-15T06:31:43.679Z,63.78
2018-09-15T06:32:15.282Z,63.88
2018-09-15T06:32:46.876Z,63.94
2018-09-15T06:33:18.496Z,64.16
2018-09-15T06:33:50.089Z,64.16
2018-09-15T06:34:21.694Z,64.35
2018-09-15T06:34:53.302Z,64.21
2018-09-15T06:35:24.898Z,64.13
2018-09-15T06:35:56.502Z,64.19
2018-09-15T06:36:28.100Z,63.77
2018-09-15T06:36:59.674Z,64.01
2018-09-15T06:37:31.272Z,64.28
2018-09-15T06:38:03.015Z,64.02
2018-09-15T06:38:34.636Z,64.12
2018-09-15T06:39:06.230Z,64.04
2018-09-15T06:39:37.830Z,63.96
2018-09-15T06:40:09.425Z,63.97
2018-09-15T06:40:41.026Z,63.71
2018-09-15T06:41:12.634Z,63.71
2018-09-15T06:41:44.239Z,63.83
2018-09-15T06:42:15.828Z,63.66
2018-09-15T06:42:47.406Z,63.77
2018-09-15T06:43:19.024Z,63.89
2018-09-15T06:43:50.616Z,63.88
2018-09-15T06:44:22.211Z,63.44
2018-09-15T06:44:53.805Z,62.71
2018-09-15T06:45:25.486Z,63.21
2018-09-15T06:45:56.999Z,62.92
2018-09-15T06:46:28.593Z,62.07
2018-09-15T06:47:00.185Z,61.65